Time,TemperatureF,DewpointF,PressureIn,WindDirection,WindDirectionDegrees,WindSpeedMPH,WindSpeedGustMPH,Humidity,HourlyPrecipIn,Conditions,Clouds,dailyrainin,SoftwareType,DateUTC
2013-02-28 00:00:00,38.9,33.6,29.70,SSE,161,0.0,0.0,81,0.00,,,0.00,Wunderground v.1.15,2013-02-28 05:00:00,
2013-02-28 00:01:00,38.8,33.5,29.69,SSE,162,2.0,2.0,81,0.00,,,0.00,Wunderground v.1.15,2013-02-28 05:01:00,
2013-02-28 00:02:00,38.7,33.7,29.69,SSE,162,0.0,2.0,82,0.00,,,0.00,Wunderground v.1.15,2013-02-28 05:02:00,
2013-02-28 00:06:00,38.3,33.3,29.69,SSE,162,0.0,2.0,82,0.00,,,0.00,Wunderground v.1.15,2013-02-28 05:06:00,
2013-02-28 00:11:00,37.8,33.1,29.69,SSE,161,0.0,0.0,83,0.00,,,0.00,Wunderground v.1.15,2013-02-28 05:11:00,
2013-02-28 00:16:00,37.5,32.5,29.68,SSE,162,1.0,1.0,82,0.00,,,0.00,Wunderground v.1.15,2013-02-28 05:16:00,
2013-02-28 00:21:00,37.4,32.1,29.68,SSE,161,0.0,0.0,81,0.00,,,0.00,Wunderground v.1.15,2013-02-28 05:21:00,
2013-02-28 00:27:00,37.5,31.6,29.68,SW,219,2.0,2.0,79,0.00,,,0.00,Wunderground v.1.15,2013-02-28 05:27:00,
2013-02-28 00:33:00,37.8,31.2,29.68,SW,219,0.0,1.0,77,0.00,,,0.00,Wunderground v.1.15,2013-02-28 05:33:00,
2013-02-28 00:39:00,38.1,30.9,29.68,SW,219,0.0,1.0,75,0.00,,,0.00,Wunderground v.1.15,2013-02-28 05:39:00,
2013-02-28 00:44:00,38.3,31.4,29.68,SE,140,6.0,6.0,76,0.00,,,0.00,Wunderground v.1.15,2013-02-28 05:44:00,
2013-02-28 00:50:00,39.0,30.4,29.68,WSW,254,0.0,2.0,71,0.00,,,0.00,Wunderground v.1.15,2013-02-28 05:50:00,
2013-02-28 00:56:00,39.3,30.7,29.68,WSW,252,1.0,2.0,71,0.00,,,0.00,Wunderground v.1.15,2013-02-28 05:56:00,
2013-02-28 01:01:00,39.5,29.8,29.69,WSW,252,0.0,1.0,68,0.00,,,0.00,Wunderground v.1.15,2013-02-28 06:01:00,
2013-02-28 01:06:00,39.5,29.4,29.69,WSW,252,0.0,1.0,67,0.00,,,0.00,Wunderground v.1.15,2013-02-28 06:06:00,
2013-02-28 01:11:00,39.4,29.3,29.69,WSW,252,1.0,1.0,67,0.00,,,0.00,Wunderground v.1.15,2013-02-28 06:11:00,
2013-02-28 01:17:00,39.2,28.8,29.69,SW,236,1.0,2.0,66,0.00,,,0.00,Wunderground v.1.15,2013-02-28 06:17:00,
2013-02-28 01:22:00,39.3,28.9,29.69,SW,219,1.0,1.0,66,0.00,,,0.00,Wunderground v.1.15,2013-02-28 06:22:00,
2013-02-28 01:27:00,39.2,29.2,29.69,WSW,238,2.0,4.0,67,0.00,,,0.00,Wunderground v.1.15,2013-02-28 06:27:00,
2013-02-28 01:33:00,39.2,28.8,29.68,WSW,239,4.0,4.0,66,0.00,,,0.00,Wunderground v.1.15,2013-02-28 06:33:00,
2013-02-28 01:39:00,39.2,28.4,29.68,West,269,6.0,9.0,65,0.00,,,0.00,Wunderground v.1.15,2013-02-28 06:39:00,
2013-02-28 01:45:00,39.5,28.3,29.68,WSW,238,9.0,9.0,64,0.00,,,0.00,Wunderground v.1.15,2013-02-28 06:45:00,
2013-02-28 01:50:00,39.6,28.8,29.68,SSW,209,7.0,7.0,65,0.00,,,0.00,Wunderground v.1.15,2013-02-28 06:50:00,
2013-02-28 01:56:00,39.3,28.1,29.68,North,351,3.0,7.0,64,0.00,,,0.00,Wunderground v.1.15,2013-02-28 06:56:00,
2013-02-28 02:01:00,39.0,28.2,29.68,SSW,202,1.0,3.0,65,0.00,,,0.00,Wunderground v.1.15,2013-02-28 07:01:00,
2013-02-28 02:06:00,38.7,28.3,29.68,SSW,196,3.0,3.0,66,0.00,,,0.00,Wunderground v.1.15,2013-02-28 07:06:00,
2013-02-28 02:11:00,38.3,27.9,29.68,SW,214,3.0,3.0,66,0.00,,,0.00,Wunderground v.1.15,2013-02-28 07:11:00,
2013-02-28 02:16:00,38.2,27.8,29.68,SW,223,1.0,3.0,66,0.00,,,0.00,Wunderground v.1.15,2013-02-28 07:16:00,
2013-02-28 02:22:00,38.0,27.6,29.68,SSW,210,0.0,2.0,66,0.00,,,0.00,Wunderground v.1.15,2013-02-28 07:22:00,
2013-02-28 02:27:00,37.8,27.8,29.68,SSW,210,0.0,2.0,67,0.00,,,0.00,Wunderground v.1.15,2013-02-28 07:27:00,
2013-02-28 02:32:00,37.5,27.9,29.66,SSW,209,1.0,3.0,68,0.00,,,0.00,Wunderground v.1.15,2013-02-28 07:32:00,
2013-02-28 02:37:00,37.2,28.0,29.66,SSW,198,2.0,4.0,69,0.00,,,0.00,Wunderground v.1.15,2013-02-28 07:37:00,
2013-02-28 02:42:00,37.5,27.9,29.66,WSW,238,0.0,3.0,68,0.00,,,0.00,Wunderground v.1.15,2013-02-28 07:42:00,
2013-02-28 02:47:00,37.5,27.9,29.66,SSW,208,2.0,3.0,68,0.00,,,0.00,Wunderground v.1.15,2013-02-28 07:47:00,
2013-02-28 02:52:00,37.3,27.3,29.66,SSW,206,2.0,3.0,67,0.00,,,0.00,Wunderground v.1.15,2013-02-28 07:52:00,
2013-02-28 02:57:00,37.3,27.7,29.66,SW,218,3.0,4.0,68,0.00,,,0.00,Wunderground v.1.15,2013-02-28 07:57:00,
2013-02-28 03:03:00,37.3,27.3,29.66,West,259,2.0,7.0,67,0.00,,,0.00,Wunderground v.1.15,2013-02-28 08:03:00,
2013-02-28 03:08:00,37.4,27.1,29.66,West,266,2.0,7.0,66,0.00,,,0.00,Wunderground v.1.15,2013-02-28 08:08:00,
2013-02-28 03:13:00,37.5,27.2,29.66,SW,228,0.0,3.0,66,0.00,,,0.00,Wunderground v.1.15,2013-02-28 08:13:00,
2013-02-28 03:19:00,37.3,27.0,29.66,NW,319,3.0,3.0,66,0.00,,,0.00,Wunderground v.1.15,2013-02-28 08:19:00,
2013-02-28 03:24:00,37.0,27.8,29.66,NNW,346,0.0,4.0,69,0.00,,,0.00,Wunderground v.1.15,2013-02-28 08:24:00,
2013-02-28 03:29:00,36.5,27.3,29.66,NNW,346,0.0,4.0,69,0.00,,,0.00,Wunderground v.1.15,2013-02-28 08:29:00,
2013-02-28 03:34:00,36.0,28.2,29.65,NNW,344,1.0,4.0,73,0.00,,,0.00,Wunderground v.1.15,2013-02-28 08:34:00,
2013-02-28 03:40:00,35.7,27.2,29.65,NNW,344,1.0,1.0,71,0.00,,,0.00,Wunderground v.1.15,2013-02-28 08:40:00,
2013-02-28 03:45:00,35.3,27.5,29.65,North,9,1.0,3.0,73,0.00,,,0.00,Wunderground v.1.15,2013-02-28 08:45:00,
2013-02-28 03:50:00,35.1,27.6,29.66,NNE,13,0.0,1.0,74,0.00,,,0.00,Wunderground v.1.15,2013-02-28 08:50:00,
2013-02-28 03:55:00,34.9,27.1,29.66,NNE,13,0.0,1.0,73,0.00,,,0.00,Wunderground v.1.15,2013-02-28 08:55:00,
2013-02-28 04:00:00,34.6,27.5,29.66,NNE,15,1.0,1.0,75,0.00,,,0.00,Wunderground v.1.15,2013-02-28 09:00:00,
2013-02-28 04:05:00,34.4,27.3,29.65,NNW,331,1.0,1.0,75,0.00,,,0.00,Wunderground v.1.15,2013-02-28 09:05:00,
2013-02-28 04:10:00,34.4,27.3,29.65,West,271,0.0,0.0,75,0.00,,,0.00,Wunderground v.1.15,2013-02-28 09:10:00,
2013-02-28 04:15:00,34.5,27.1,29.65,West,271,0.0,0.0,74,0.00,,,0.00,Wunderground v.1.15,2013-02-28 09:15:00,
2013-02-28 04:21:00,34.4,27.3,29.65,West,271,0.0,1.0,75,0.00,,,0.00,Wunderground v.1.15,2013-02-28 09:21:00,
2013-02-28 04:26:00,34.3,27.5,29.65,ENE,63,0.0,2.0,76,0.00,,,0.00,Wunderground v.1.15,2013-02-28 09:26:00,
2013-02-28 04:31:00,34.1,27.0,29.65,ENE,63,0.0,1.0,75,0.00,,,0.00,Wunderground v.1.15,2013-02-28 09:31:00,
2013-02-28 04:36:00,33.9,26.8,29.65,ENE,63,0.0,2.0,75,0.00,,,0.00,Wunderground v.1.15,2013-02-28 09:36:00,
2013-02-28 04:41:00,33.8,26.7,29.65,ENE,63,0.0,0.0,75,0.00,,,0.00,Wunderground v.1.15,2013-02-28 09:41:00,
2013-02-28 04:46:00,33.8,26.7,29.66,ENE,63,0.0,0.0,75,0.00,,,0.00,Wunderground v.1.15,2013-02-28 09:46:00,
2013-02-28 04:51:00,33.5,26.4,29.66,ENE,63,0.0,0.0,75,0.00,,,0.00,Wunderground v.1.15,2013-02-28 09:51:00,
2013-02-28 04:56:00,33.4,27.0,29.66,ENE,63,0.0,1.0,77,0.00,,,0.00,Wunderground v.1.15,2013-02-28 09:56:00,
2013-02-28 05:01:00,33.2,26.1,29.66,ENE,63,0.0,0.0,75,0.00,,,0.00,Wunderground v.1.15,2013-02-28 10:01:00,
2013-02-28 05:07:00,33.2,27.4,29.66,ENE,63,0.0,1.0,79,0.00,,,0.00,Wunderground v.1.15,2013-02-28 10:07:00,
2013-02-28 05:12:00,32.9,27.1,29.66,ENE,63,0.0,0.0,79,0.00,,,0.00,Wunderground v.1.15,2013-02-28 10:12:00,
2013-02-28 05:17:00,32.8,27.0,29.66,ENE,63,0.0,0.0,79,0.00,,,0.00,Wunderground v.1.15,2013-02-28 10:17:00,
2013-02-28 05:22:00,32.9,27.1,29.66,ENE,63,0.0,1.0,79,0.00,,,0.00,Wunderground v.1.15,2013-02-28 10:22:00,
2013-02-28 05:27:00,33.0,27.2,29.66,ENE,63,0.0,1.0,79,0.00,,,0.00,Wunderground v.1.15,2013-02-28 10:27:00,
2013-02-28 05:32:00,33.2,27.7,29.66,ENE,63,0.0,0.0,80,0.00,,,0.00,Wunderground v.1.15,2013-02-28 10:32:00,
2013-02-28 05:37:00,33.3,26.9,29.66,ENE,63,0.0,0.0,77,0.00,,,0.00,Wunderground v.1.15,2013-02-28 10:37:00,
2013-02-28 05:42:00,33.4,26.6,29.66,ENE,63,0.0,1.0,76,0.00,,,0.00,Wunderground v.1.15,2013-02-28 10:42:00,
2013-02-28 05:47:00,33.6,26.5,29.66,South,184,2.0,5.0,75,0.00,,,0.00,Wunderground v.1.15,2013-02-28 10:47:00,
2013-02-28 05:53:00,34.1,26.7,29.66,West,281,0.0,1.0,74,0.00,,,0.00,Wunderground v.1.15,2013-02-28 10:53:00,
2013-02-28 05:58:00,34.0,27.2,29.66,West,281,0.0,2.0,76,0.00,,,0.00,Wunderground v.1.15,2013-02-28 10:58:00,
2013-02-28 06:04:00,33.8,27.4,29.66,NE,46,0.0,3.0,77,0.00,,,0.00,Wunderground v.1.15,2013-02-28 11:04:00,
2013-02-28 06:09:00,33.5,27.4,29.66,NE,34,0.0,3.0,78,0.00,,,0.00,Wunderground v.1.15,2013-02-28 11:09:00,
2013-02-28 06:14:00,33.3,26.9,29.66,NW,311,2.0,3.0,77,0.00,,,0.00,Wunderground v.1.15,2013-02-28 11:14:00,
2013-02-28 06:19:00,33.1,26.7,29.67,NNE,28,1.0,3.0,77,0.00,,,0.00,Wunderground v.1.15,2013-02-28 11:19:00,
2013-02-28 06:24:00,32.9,27.1,29.67,NNE,31,0.0,2.0,79,0.00,,,0.00,Wunderground v.1.15,2013-02-28 11:24:00,
2013-02-28 06:29:00,32.9,27.1,29.67,NNE,31,0.0,2.0,79,0.00,,,0.00,Wunderground v.1.15,2013-02-28 11:29:00,
2013-02-28 06:34:00,32.6,26.8,29.67,NNE,31,0.0,2.0,79,0.00,,,0.00,Wunderground v.1.15,2013-02-28 11:34:00,
2013-02-28 06:40:00,32.1,26.6,29.67,NNE,31,0.0,0.0,80,0.00,,,0.00,Wunderground v.1.15,2013-02-28 11:40:00,
2013-02-28 06:45:00,32.0,26.8,29.67,NNE,30,0.0,0.0,81,0.00,,,0.00,Wunderground v.1.15,2013-02-28 11:45:00,
2013-02-28 06:50:00,32.0,27.1,29.67,NNE,31,1.0,1.0,82,0.00,,,0.00,Wunderground v.1.15,2013-02-28 11:50:00,
2013-02-28 06:55:00,32.0,27.4,29.67,NNE,31,0.0,1.0,83,0.00,,,0.00,Wunderground v.1.15,2013-02-28 11:55:00,
2013-02-28 07:00:00,32.0,27.4,29.68,NNE,31,0.0,0.0,83,0.00,,,0.00,Wunderground v.1.15,2013-02-28 12:00:00,
2013-02-28 07:05:00,32.0,27.4,29.68,NNE,31,0.0,0.0,83,0.00,,,0.00,Wunderground v.1.15,2013-02-28 12:05:00,
2013-02-28 07:11:00,31.9,27.6,29.68,NNE,31,0.0,0.0,84,0.00,,,0.00,Wunderground v.1.15,2013-02-28 12:11:00,
2013-02-28 07:16:00,31.7,27.4,29.68,NNE,30,0.0,1.0,84,0.00,,,0.00,Wunderground v.1.15,2013-02-28 12:16:00,
2013-02-28 07:21:00,31.6,27.3,29.68,NNE,31,0.0,1.0,84,0.00,,,0.00,Wunderground v.1.15,2013-02-28 12:21:00,
2013-02-28 07:26:00,31.6,27.6,29.68,NNE,31,0.0,1.0,85,0.00,,,0.00,Wunderground v.1.15,2013-02-28 12:26:00,
2013-02-28 07:31:00,31.6,27.9,29.68,NNE,31,1.0,1.0,86,0.00,,,0.00,Wunderground v.1.15,2013-02-28 12:31:00,
2013-02-28 07:36:00,31.6,27.6,29.68,NNE,31,0.0,1.0,85,0.00,,,0.00,Wunderground v.1.15,2013-02-28 12:36:00,
2013-02-28 07:42:00,31.7,27.7,29.68,SE,129,1.0,3.0,85,0.00,,,0.00,Wunderground v.1.15,2013-02-28 12:42:00,
2013-02-28 07:47:00,31.8,27.8,29.69,SE,129,0.0,3.0,85,0.00,,,0.00,Wunderground v.1.15,2013-02-28 12:47:00,
2013-02-28 07:52:00,32.1,27.2,29.69,SE,129,0.0,0.0,82,0.00,,,0.00,Wunderground v.1.15,2013-02-28 12:52:00,
2013-02-28 07:57:00,32.4,27.2,29.69,SE,129,0.0,0.0,81,0.00,,,0.00,Wunderground v.1.15,2013-02-28 12:57:00,
2013-02-28 08:02:00,32.8,27.3,29.69,SE,129,0.0,1.0,80,0.00,,,0.00,Wunderground v.1.15,2013-02-28 13:02:00,
2013-02-28 08:07:00,33.2,27.1,29.69,SE,129,0.0,1.0,78,0.00,,,0.00,Wunderground v.1.15,2013-02-28 13:07:00,
2013-02-28 08:12:00,33.4,27.6,29.69,SE,129,1.0,1.0,79,0.00,,,0.00,Wunderground v.1.15,2013-02-28 13:12:00,
2013-02-28 08:17:00,33.4,27.3,29.70,SE,129,0.0,1.0,78,0.00,,,0.00,Wunderground v.1.15,2013-02-28 13:17:00,
2013-02-28 08:23:00,33.5,26.1,29.70,SW,215,0.0,1.0,74,0.00,,,0.00,Wunderground v.1.15,2013-02-28 13:23:00,
2013-02-28 08:28:00,33.9,25.5,29.70,WNW,283,1.0,2.0,71,0.00,,,0.00,Wunderground v.1.15,2013-02-28 13:28:00,
2013-02-28 08:33:00,34.1,26.0,29.71,WNW,283,0.0,0.0,72,0.00,,,0.00,Wunderground v.1.15,2013-02-28 13:33:00,
2013-02-28 08:39:00,34.4,25.6,29.71,ESE,123,0.0,2.0,70,0.00,,,0.00,Wunderground v.1.15,2013-02-28 13:39:00,
2013-02-28 08:44:00,34.4,26.0,29.71,South,170,2.0,2.0,71,0.00,,,0.00,Wunderground v.1.15,2013-02-28 13:44:00,
2013-02-28 08:49:00,34.6,25.5,29.71,North,355,1.0,4.0,69,0.00,,,0.00,Wunderground v.1.15,2013-02-28 13:49:00,
2013-02-28 08:54:00,35.0,25.5,29.71,North,355,0.0,1.0,68,0.00,,,0.00,Wunderground v.1.15,2013-02-28 13:54:00,
2013-02-28 08:59:00,35.3,25.8,29.71,North,355,0.0,1.0,68,0.00,,,0.00,Wunderground v.1.15,2013-02-28 13:59:00,
2013-02-28 09:04:00,35.9,26.7,29.71,North,355,1.0,4.0,69,0.00,,,0.00,Wunderground v.1.15,2013-02-28 14:04:00,
2013-02-28 09:09:00,36.6,25.9,29.71,NNE,17,2.0,7.0,65,0.00,,,0.00,Wunderground v.1.15,2013-02-28 14:09:00,
2013-02-28 09:14:00,37.0,26.7,29.71,NW,322,0.0,5.0,66,0.00,,,0.00,Wunderground v.1.15,2013-02-28 14:14:00,
2013-02-28 09:19:00,37.3,26.2,29.71,West,270,1.0,5.0,64,0.00,,,0.00,Wunderground v.1.15,2013-02-28 14:19:00,
2013-02-28 09:24:00,37.4,25.6,29.71,West,270,0.0,6.0,62,0.00,,,0.00,Wunderground v.1.15,2013-02-28 14:24:00,
2013-02-28 09:30:00,37.4,26.3,29.71,West,269,1.0,2.0,64,0.00,,,0.00,Wunderground v.1.15,2013-02-28 14:30:00,
2013-02-28 09:35:00,37.4,25.6,29.72,West,270,1.0,2.0,62,0.00,,,0.00,Wunderground v.1.15,2013-02-28 14:35:00,
2013-02-28 09:40:00,37.4,25.9,29.72,West,270,2.0,2.0,63,0.00,,,0.00,Wunderground v.1.15,2013-02-28 14:40:00,
2013-02-28 09:45:00,37.3,25.8,29.72,West,267,0.0,3.0,63,0.00,,,0.00,Wunderground v.1.15,2013-02-28 14:45:00,
2013-02-28 09:50:00,37.5,26.0,29.73,West,268,0.0,1.0,63,0.00,,,0.00,Wunderground v.1.15,2013-02-28 14:50:00,
2013-02-28 09:55:00,37.6,26.1,29.73,West,268,0.0,2.0,63,0.00,,,0.00,Wunderground v.1.15,2013-02-28 14:55:00,
2013-02-28 10:01:00,37.7,25.8,29.72,West,269,0.0,0.0,62,0.00,,,0.00,Wunderground v.1.15,2013-02-28 15:01:00,
2013-02-28 10:06:00,37.9,26.0,29.72,West,269,0.0,2.0,62,0.00,,,0.00,Wunderground v.1.15,2013-02-28 15:06:00,
2013-02-28 10:11:00,38.6,26.7,29.72,WSW,251,3.0,4.0,62,0.00,,,0.00,Wunderground v.1.15,2013-02-28 15:11:00,
2013-02-28 10:16:00,39.2,26.5,29.72,SW,221,3.0,4.0,60,0.00,,,0.00,Wunderground v.1.15,2013-02-28 15:16:00,
2013-02-28 10:21:00,39.7,26.5,29.72,SW,225,2.0,5.0,59,0.00,,,0.00,Wunderground v.1.15,2013-02-28 15:21:00,
2013-02-28 10:26:00,39.5,25.9,29.72,NW,311,1.0,5.0,58,0.00,,,0.00,Wunderground v.1.15,2013-02-28 15:26:00,
2013-02-28 10:31:00,39.1,26.4,29.72,North,355,3.0,5.0,60,0.00,,,0.00,Wunderground v.1.15,2013-02-28 15:31:00,
2013-02-28 10:37:00,39.0,25.9,29.72,West,281,2.0,5.0,59,0.00,,,0.00,Wunderground v.1.15,2013-02-28 15:37:00,
2013-02-28 10:42:00,38.8,25.7,29.72,North,351,2.0,3.0,59,0.00,,,0.00,Wunderground v.1.15,2013-02-28 15:42:00,
2013-02-28 10:47:00,38.5,26.2,29.72,North,360,2.0,6.0,61,0.00,,,0.00,Wunderground v.1.15,2013-02-28 15:47:00,
2013-02-28 10:52:00,38.1,25.8,29.72,North,5,2.0,3.0,61,0.00,,,0.00,Wunderground v.1.15,2013-02-28 15:52:00,
2013-02-28 10:57:00,38.1,26.2,29.72,NNW,329,1.0,3.0,62,0.00,,,0.00,Wunderground v.1.15,2013-02-28 15:57:00,
2013-02-28 11:02:00,38.2,25.9,29.72,NNW,330,0.0,3.0,61,0.00,,,0.00,Wunderground v.1.15,2013-02-28 16:02:00,
2013-02-28 11:07:00,38.3,26.8,29.72,NNW,330,0.0,3.0,63,0.00,,,0.00,Wunderground v.1.15,2013-02-28 16:07:00,
2013-02-28 11:12:00,38.6,26.3,29.72,NW,321,1.0,2.0,61,0.00,,,0.00,Wunderground v.1.15,2013-02-28 16:12:00,
2013-02-28 11:17:00,38.8,26.5,29.73,North,5,1.0,4.0,61,0.00,,,0.00,Wunderground v.1.15,2013-02-28 16:17:00,
2013-02-28 11:23:00,39.3,27.0,29.73,West,279,1.0,3.0,61,0.00,,,0.00,Wunderground v.1.15,2013-02-28 16:23:00,
2013-02-28 11:28:00,40.2,27.4,29.73,ENE,76,3.0,4.0,60,0.00,,,0.00,Wunderground v.1.15,2013-02-28 16:28:00,
2013-02-28 11:33:00,41.0,27.8,29.73,NNE,22,7.0,7.0,59,0.00,,,0.00,Wunderground v.1.15,2013-02-28 16:33:00,
2013-02-28 11:39:00,42.1,27.9,29.73,SSW,211,2.0,7.0,57,0.00,,,0.00,Wunderground v.1.15,2013-02-28 16:39:00,
2013-02-28 11:44:00,42.3,27.7,29.73,WNW,284,0.0,4.0,56,0.00,,,0.00,Wunderground v.1.15,2013-02-28 16:44:00,
2013-02-28 11:49:00,42.7,28.1,29.72,NW,325,0.0,4.0,56,0.00,,,0.00,Wunderground v.1.15,2013-02-28 16:49:00,
2013-02-28 11:54:00,43.1,28.0,29.72,NNE,15,2.0,4.0,55,0.00,,,0.00,Wunderground v.1.15,2013-02-28 16:54:00,
2013-02-28 11:59:00,42.3,26.4,29.72,NNE,23,2.0,4.0,53,0.00,,,0.00,Wunderground v.1.15,2013-02-28 16:59:00,
2013-02-28 12:04:00,41.2,26.7,29.73,NE,44,0.0,2.0,56,0.00,,,0.00,Wunderground v.1.15,2013-02-28 17:04:00,
2013-02-28 12:09:00,40.7,26.2,29.73,North,360,3.0,4.0,56,0.00,,,0.00,Wunderground v.1.15,2013-02-28 17:09:00,
2013-02-28 12:14:00,40.5,25.6,29.73,NNW,339,0.0,3.0,55,0.00,,,0.00,Wunderground v.1.15,2013-02-28 17:14:00,
2013-02-28 12:19:00,40.2,26.2,29.73,NNW,338,0.0,3.0,57,0.00,,,0.00,Wunderground v.1.15,2013-02-28 17:19:00,
2013-02-28 12:24:00,40.4,25.9,29.73,NW,309,0.0,3.0,56,0.00,,,0.00,Wunderground v.1.15,2013-02-28 17:24:00,
2013-02-28 12:30:00,40.6,27.0,29.73,NNW,330,3.0,3.0,58,0.00,,,0.00,Wunderground v.1.15,2013-02-28 17:30:00,
2013-02-28 12:35:00,41.0,27.8,29.73,NW,306,4.0,4.0,59,0.00,,,0.00,Wunderground v.1.15,2013-02-28 17:35:00,
2013-02-28 12:40:00,41.6,26.6,29.73,WNW,286,4.0,4.0,55,0.00,,,0.00,Wunderground v.1.15,2013-02-28 17:40:00,
2013-02-28 12:45:00,42.1,27.1,29.73,WSW,257,5.0,7.0,55,0.00,,,0.00,Wunderground v.1.15,2013-02-28 17:45:00,
2013-02-28 12:50:00,42.5,27.9,29.72,WNW,302,2.0,3.0,56,0.00,,,0.00,Wunderground v.1.15,2013-02-28 17:50:00,
2013-02-28 12:55:00,43.0,27.9,29.72,North,11,9.0,9.0,55,0.00,,,0.00,Wunderground v.1.15,2013-02-28 17:55:00,
2013-02-28 13:00:00,43.3,27.8,29.72,North,5,7.0,7.0,54,0.00,,,0.00,Wunderground v.1.15,2013-02-28 18:00:00,
2013-02-28 13:05:00,42.8,26.4,29.73,ESE,123,2.0,7.0,52,0.00,,,0.00,Wunderground v.1.15,2013-02-28 18:05:00,
2013-02-28 13:11:00,42.0,27.0,29.73,NE,42,1.0,3.0,55,0.00,,,0.00,Wunderground v.1.15,2013-02-28 18:11:00,
2013-02-28 13:16:00,41.2,27.5,29.73,NE,36,6.0,6.0,58,0.00,,,0.00,Wunderground v.1.15,2013-02-28 18:16:00,
2013-02-28 13:21:00,40.3,28.3,29.73,NNE,19,2.0,7.0,62,0.00,,,0.00,Wunderground v.1.15,2013-02-28 18:21:00,
2013-02-28 13:26:00,39.8,28.6,29.73,NNE,13,0.0,7.0,64,0.00,,,0.00,Wunderground v.1.15,2013-02-28 18:26:00,
2013-02-28 13:31:00,40.0,28.8,29.73,NW,324,1.0,4.0,64,0.00,,,0.00,Wunderground v.1.15,2013-02-28 18:31:00,
2013-02-28 13:36:00,40.2,29.7,29.73,NNE,15,3.0,6.0,66,0.00,,,0.00,Wunderground v.1.15,2013-02-28 18:36:00,
2013-02-28 13:41:00,39.7,28.9,29.73,ENE,74,8.0,9.0,65,0.00,,,0.00,Wunderground v.1.15,2013-02-28 18:41:00,
2013-02-28 13:46:00,39.2,29.2,29.73,WNW,284,1.0,10.0,67,0.00,,,0.00,Wunderground v.1.15,2013-02-28 18:46:00,
2013-02-28 13:52:00,39.3,29.3,29.73,NNW,340,7.0,7.0,67,0.00,,,0.00,Wunderground v.1.15,2013-02-28 18:52:00,
2013-02-28 13:57:00,40.0,29.9,29.73,NW,314,2.0,7.0,67,0.00,,,0.00,Wunderground v.1.15,2013-02-28 18:57:00,
2013-02-28 14:02:00,40.9,30.0,29.73,NW,325,3.0,5.0,65,0.00,,,0.00,Wunderground v.1.15,2013-02-28 19:02:00,
2013-02-28 14:07:00,41.2,29.9,29.73,NNE,24,4.0,8.0,64,0.00,,,0.00,Wunderground v.1.15,2013-02-28 19:07:00,
2013-02-28 14:12:00,41.0,29.7,29.73,West,263,1.0,3.0,64,0.00,,,0.00,Wunderground v.1.15,2013-02-28 19:12:00,
2013-02-28 14:17:00,40.5,28.9,29.73,NNE,17,2.0,5.0,63,0.00,,,0.00,Wunderground v.1.15,2013-02-28 19:17:00,
2013-02-28 14:22:00,40.1,28.5,29.73,North,355,1.0,4.0,63,0.00,,,0.00,Wunderground v.1.15,2013-02-28 19:22:00,
2013-02-28 14:28:00,40.1,29.3,29.73,NW,304,0.0,5.0,65,0.00,,,0.00,Wunderground v.1.15,2013-02-28 19:28:00,
2013-02-28 14:33:00,40.1,28.9,29.74,NNW,346,5.0,5.0,64,0.00,,,0.00,Wunderground v.1.15,2013-02-28 19:33:00,
2013-02-28 14:39:00,40.2,28.6,29.74,NNE,15,4.0,7.0,63,0.00,,,0.00,Wunderground v.1.15,2013-02-28 19:39:00,
2013-02-28 14:44:00,40.1,28.5,29.74,NNE,18,1.0,6.0,63,0.00,,,0.00,Wunderground v.1.15,2013-02-28 19:44:00,
2013-02-28 14:49:00,39.8,27.8,29.74,NNE,24,0.0,8.0,62,0.00,,,0.00,Wunderground v.1.15,2013-02-28 19:49:00,
2013-02-28 14:54:00,39.8,27.8,29.74,North,5,4.0,8.0,62,0.00,,,0.00,Wunderground v.1.15,2013-02-28 19:54:00,
2013-02-28 14:59:00,39.7,28.5,29.74,NE,34,0.0,8.0,64,0.00,,,0.00,Wunderground v.1.15,2013-02-28 19:59:00,
2013-02-28 15:04:00,39.9,27.9,29.74,NNE,17,5.0,5.0,62,0.00,,,0.00,Wunderground v.1.15,2013-02-28 20:04:00,
2013-02-28 15:09:00,39.8,27.4,29.74,North,355,1.0,7.0,61,0.00,,,0.00,Wunderground v.1.15,2013-02-28 20:09:00,
2013-02-28 15:14:00,40.0,27.6,29.74,SE,140,1.0,7.0,61,0.00,,,0.00,Wunderground v.1.15,2013-02-28 20:14:00,
2013-02-28 15:19:00,40.3,27.5,29.74,NNW,340,3.0,7.0,60,0.00,,,0.00,Wunderground v.1.15,2013-02-28 20:19:00,
2013-02-28 15:24:00,40.6,27.0,29.74,North,355,3.0,4.0,58,0.00,,,0.00,Wunderground v.1.15,2013-02-28 20:24:00,
2013-02-28 15:29:00,40.8,26.7,29.74,NNE,28,3.0,5.0,57,0.00,,,0.00,Wunderground v.1.15,2013-02-28 20:29:00,
2013-02-28 15:34:00,40.9,26.8,29.74,NNE,25,0.0,7.0,57,0.00,,,0.00,Wunderground v.1.15,2013-02-28 20:34:00,
2013-02-28 15:40:00,41.2,27.5,29.74,NNE,24,2.0,3.0,58,0.00,,,0.00,Wunderground v.1.15,2013-02-28 20:40:00,
2013-02-28 15:45:00,41.6,27.1,29.74,West,275,1.0,5.0,56,0.00,,,0.00,Wunderground v.1.15,2013-02-28 20:45:00,
2013-02-28 15:50:00,41.5,26.5,29.75,West,269,3.0,3.0,55,0.00,,,0.00,Wunderground v.1.15,2013-02-28 20:50:00,
2013-02-28 15:55:00,41.4,26.9,29.75,NNW,344,2.0,5.0,56,0.00,,,0.00,Wunderground v.1.15,2013-02-28 20:55:00,
2013-02-28 16:00:00,41.5,27.0,29.75,NNE,22,0.0,2.0,56,0.00,,,0.00,Wunderground v.1.15,2013-02-28 21:00:00,
2013-02-28 16:05:00,41.5,26.5,29.74,West,278,0.0,6.0,55,0.00,,,0.00,Wunderground v.1.15,2013-02-28 21:05:00,
2013-02-28 16:11:00,41.4,26.0,29.74,NNE,12,5.0,7.0,54,0.00,,,0.00,Wunderground v.1.15,2013-02-28 21:11:00,
2013-02-28 16:16:00,40.9,26.4,29.75,NNE,20,2.0,7.0,56,0.00,,,0.00,Wunderground v.1.15,2013-02-28 21:16:00,
2013-02-28 16:21:00,40.8,25.9,29.75,NW,322,2.0,3.0,55,0.00,,,0.00,Wunderground v.1.15,2013-02-28 21:21:00,
2013-02-28 16:26:00,40.7,26.2,29.75,WNW,296,1.0,5.0,56,0.00,,,0.00,Wunderground v.1.15,2013-02-28 21:26:00,
2013-02-28 16:31:00,40.6,26.1,29.75,NNE,25,2.0,3.0,56,0.00,,,0.00,Wunderground v.1.15,2013-02-28 21:31:00,
2013-02-28 16:36:00,40.1,25.6,29.75,North,360,5.0,5.0,56,0.00,,,0.00,Wunderground v.1.15,2013-02-28 21:36:00,
2013-02-28 16:41:00,39.5,25.5,29.75,NNE,32,2.0,4.0,57,0.00,,,0.00,Wunderground v.1.15,2013-02-28 21:41:00,
2013-02-28 16:46:00,39.1,25.6,29.76,WNW,294,0.0,7.0,58,0.00,,,0.00,Wunderground v.1.15,2013-02-28 21:46:00,
2013-02-28 16:52:00,38.9,25.8,29.76,WNW,295,0.0,1.0,59,0.00,,,0.00,Wunderground v.1.15,2013-02-28 21:52:00,
2013-02-28 16:57:00,38.8,25.7,29.76,North,360,1.0,3.0,59,0.00,,,0.00,Wunderground v.1.15,2013-02-28 21:57:00,
2013-02-28 17:02:00,38.6,25.9,29.77,North,9,0.0,5.0,60,0.00,,,0.00,Wunderground v.1.15,2013-02-28 22:02:00,
2013-02-28 17:07:00,38.5,25.8,29.77,NW,307,0.0,6.0,60,0.00,,,0.00,Wunderground v.1.15,2013-02-28 22:07:00,
2013-02-28 17:12:00,38.2,25.5,29.77,WNW,299,1.0,5.0,60,0.00,,,0.00,Wunderground v.1.15,2013-02-28 22:12:00,
2013-02-28 17:17:00,37.9,25.6,29.79,WSW,253,1.0,5.0,61,0.00,,,0.00,Wunderground v.1.15,2013-02-28 22:17:00,
2013-02-28 17:22:00,37.6,25.7,29.79,NW,305,4.0,4.0,62,0.00,,,0.00,Wunderground v.1.15,2013-02-28 22:22:00,
2013-02-28 17:28:00,37.3,25.8,29.79,WNW,284,0.0,5.0,63,0.00,,,0.00,Wunderground v.1.15,2013-02-28 22:28:00,
2013-02-28 17:33:00,37.0,25.2,29.79,WNW,288,1.0,6.0,62,0.00,,,0.00,Wunderground v.1.15,2013-02-28 22:33:00,
2013-02-28 17:38:00,36.7,25.3,29.79,NE,36,0.0,6.0,63,0.00,,,0.00,Wunderground v.1.15,2013-02-28 22:38:00,
2013-02-28 17:43:00,36.4,25.7,29.79,NNW,331,0.0,6.0,65,0.00,,,0.00,Wunderground v.1.15,2013-02-28 22:43:00,
2013-02-28 17:49:00,36.1,25.5,29.80,NNE,28,2.0,6.0,65,0.00,,,0.00,Wunderground v.1.15,2013-02-28 22:49:00,
2013-02-28 17:54:00,35.9,25.3,29.80,NNE,28,0.0,2.0,65,0.00,,,0.00,Wunderground v.1.15,2013-02-28 22:54:00,
2013-02-28 17:59:00,35.7,25.1,29.80,NNE,28,0.0,2.0,65,0.00,,,0.00,Wunderground v.1.15,2013-02-28 22:59:00,
2013-02-28 18:04:00,35.5,25.3,29.81,NE,52,4.0,7.0,66,0.00,,,0.00,Wunderground v.1.15,2013-02-28 23:04:00,
2013-02-28 18:09:00,35.2,25.0,29.81,NNW,342,3.0,7.0,66,0.00,,,0.00,Wunderground v.1.15,2013-02-28 23:09:00,
2013-02-28 18:14:00,34.9,24.7,29.81,NNW,343,4.0,6.0,66,0.00,,,0.00,Wunderground v.1.15,2013-02-28 23:14:00,
2013-02-28 18:19:00,34.6,24.8,29.82,West,273,0.0,7.0,67,0.00,,,0.00,Wunderground v.1.15,2013-02-28 23:19:00,
2013-02-28 18:25:00,34.4,24.9,29.82,West,266,2.0,3.0,68,0.00,,,0.00,Wunderground v.1.15,2013-02-28 23:25:00,
2013-02-28 18:30:00,34.1,24.6,29.82,West,269,1.0,1.0,68,0.00,,,0.00,Wunderground v.1.15,2013-02-28 23:30:00,
2013-02-28 18:35:00,33.8,24.7,29.83,West,269,0.0,1.0,69,0.00,,,0.00,Wunderground v.1.15,2013-02-28 23:35:00,
2013-02-28 18:40:00,33.4,25.0,29.83,West,268,0.0,0.0,71,0.00,,,0.00,Wunderground v.1.15,2013-02-28 23:40:00,
2013-02-28 18:45:00,33.2,24.5,29.84,West,281,1.0,6.0,70,0.00,,,0.00,Wunderground v.1.15,2013-02-28 23:45:00,
2013-02-28 18:51:00,33.2,24.5,29.84,North,355,0.0,1.0,70,0.00,,,0.00,Wunderground v.1.15,2013-02-28 23:51:00,
2013-02-28 18:56:00,33.1,24.4,29.84,North,360,1.0,7.0,70,0.00,,,0.00,Wunderground v.1.15,2013-02-28 23:56:00,
2013-02-28 19:01:00,33.0,24.3,29.84,ENE,57,8.0,8.0,70,0.00,,,0.00,Wunderground v.1.15,2013-03-01 00:01:00,
2013-02-28 19:06:00,32.9,24.2,29.84,NE,51,3.0,8.0,70,0.00,,,0.00,Wunderground v.1.15,2013-03-01 00:06:00,
2013-02-28 19:11:00,32.8,24.1,29.84,NE,53,1.0,4.0,70,0.00,,,0.00,Wunderground v.1.15,2013-03-01 00:11:00,
2013-02-28 19:16:00,32.7,24.0,29.84,NNW,345,1.0,4.0,70,0.00,,,0.00,Wunderground v.1.15,2013-03-01 00:16:00,
2013-02-28 19:21:00,32.6,24.2,29.84,NE,45,0.0,2.0,71,0.00,,,0.00,Wunderground v.1.15,2013-03-01 00:21:00,
2013-02-28 19:26:00,32.5,23.8,29.84,NW,326,0.0,2.0,70,0.00,,,0.00,Wunderground v.1.15,2013-03-01 00:26:00,
2013-02-28 19:31:00,32.6,24.2,29.84,North,11,1.0,5.0,71,0.00,,,0.00,Wunderground v.1.15,2013-03-01 00:31:00,
2013-02-28 19:36:00,32.7,24.3,29.84,North,355,3.0,7.0,71,0.00,,,0.00,Wunderground v.1.15,2013-03-01 00:36:00,
2013-02-28 19:42:00,32.8,24.4,29.84,North,355,0.0,6.0,71,0.00,,,0.00,Wunderground v.1.15,2013-03-01 00:42:00,
2013-02-28 19:47:00,32.9,24.5,29.84,NNE,17,4.0,6.0,71,0.00,,,0.00,Wunderground v.1.15,2013-03-01 00:47:00,
2013-02-28 19:52:00,32.9,24.2,29.84,NNE,13,0.0,5.0,70,0.00,,,0.00,Wunderground v.1.15,2013-03-01 00:52:00,
2013-02-28 19:57:00,33.0,24.3,29.84,North,10,1.0,6.0,70,0.00,,,0.00,Wunderground v.1.15,2013-03-01 00:57:00,
2013-02-28 20:02:00,32.9,24.5,29.85,NNW,337,3.0,3.0,71,0.00,,,0.00,Wunderground v.1.15,2013-03-01 01:02:00,
2013-02-28 20:07:00,32.9,24.2,29.85,ENE,63,4.0,4.0,70,0.00,,,0.00,Wunderground v.1.15,2013-03-01 01:07:00,
2013-02-28 20:12:00,32.9,24.5,29.85,North,5,0.0,2.0,71,0.00,,,0.00,Wunderground v.1.15,2013-03-01 01:12:00,
2013-02-28 20:17:00,32.9,24.5,29.84,NW,304,3.0,3.0,71,0.00,,,0.00,Wunderground v.1.15,2013-03-01 01:17:00,
2013-02-28 20:23:00,32.7,24.0,29.84,NW,307,1.0,3.0,70,0.00,,,0.00,Wunderground v.1.15,2013-03-01 01:23:00,
2013-02-28 20:28:00,32.6,23.9,29.84,NNW,336,2.0,5.0,70,0.00,,,0.00,Wunderground v.1.15,2013-03-01 01:28:00,
2013-02-28 20:34:00,32.5,24.1,29.84,NNE,32,4.0,9.0,71,0.00,,,0.00,Wunderground v.1.15,2013-03-01 01:34:00,
2013-02-28 20:39:00,32.4,24.0,29.84,East,80,1.0,9.0,71,0.00,,,0.00,Wunderground v.1.15,2013-03-01 01:39:00,
2013-02-28 20:44:00,32.3,23.6,29.84,North,360,2.0,6.0,70,0.00,,,0.00,Wunderground v.1.15,2013-03-01 01:44:00,
2013-02-28 20:49:00,32.4,24.0,29.84,North,5,1.0,6.0,71,0.00,,,0.00,Wunderground v.1.15,2013-03-01 01:49:00,
2013-02-28 20:54:00,32.4,24.0,29.84,WNW,296,2.0,6.0,71,0.00,,,0.00,Wunderground v.1.15,2013-03-01 01:54:00,
2013-02-28 20:59:00,32.5,24.1,29.84,WNW,300,2.0,6.0,71,0.00,,,0.00,Wunderground v.1.15,2013-03-01 01:59:00,
2013-02-28 21:04:00,32.5,23.8,29.84,NE,35,1.0,5.0,70,0.00,,,0.00,Wunderground v.1.15,2013-03-01 02:04:00,
2013-02-28 21:10:00,32.6,24.2,29.84,NNW,343,3.0,3.0,71,0.00,,,0.00,Wunderground v.1.15,2013-03-01 02:10:00,
2013-02-28 21:15:00,32.7,24.0,29.84,NNE,15,0.0,4.0,70,0.00,,,0.00,Wunderground v.1.15,2013-03-01 02:15:00,
2013-02-28 21:20:00,32.7,24.0,29.84,NW,321,0.0,2.0,70,0.00,,,0.00,Wunderground v.1.15,2013-03-01 02:20:00,
2013-02-28 21:25:00,32.8,24.1,29.84,NNW,336,2.0,9.0,70,0.00,,,0.00,Wunderground v.1.15,2013-03-01 02:25:00,
2013-02-28 21:30:00,32.9,24.2,29.84,WNW,303,0.0,3.0,70,0.00,,,0.00,Wunderground v.1.15,2013-03-01 02:30:00,
2013-02-28 21:35:00,32.9,24.2,29.83,NNE,17,1.0,6.0,70,0.00,,,0.00,Wunderground v.1.15,2013-03-01 02:35:00,
2013-02-28 21:40:00,32.9,24.2,29.83,North,9,1.0,2.0,70,0.00,,,0.00,Wunderground v.1.15,2013-03-01 02:40:00,
2013-02-28 21:45:00,32.9,24.2,29.83,North,355,1.0,4.0,70,0.00,,,0.00,Wunderground v.1.15,2013-03-01 02:45:00,
2013-02-28 21:50:00,32.8,24.1,29.84,NNE,13,2.0,3.0,70,0.00,,,0.00,Wunderground v.1.15,2013-03-01 02:50:00,
2013-02-28 21:56:00,32.8,24.4,29.84,North,11,0.0,3.0,71,0.00,,,0.00,Wunderground v.1.15,2013-03-01 02:56:00,
2013-02-28 22:01:00,32.7,24.7,29.84,North,11,0.0,1.0,72,0.00,,,0.00,Wunderground v.1.15,2013-03-01 03:01:00,
2013-02-28 22:06:00,32.6,24.2,29.84,North,11,2.0,2.0,71,0.00,,,0.00,Wunderground v.1.15,2013-03-01 03:06:00,
2013-02-28 22:11:00,32.6,24.6,29.84,NNW,348,3.0,3.0,72,0.00,,,0.00,Wunderground v.1.15,2013-03-01 03:11:00,
2013-02-28 22:16:00,32.6,24.2,29.85,North,360,2.0,4.0,71,0.00,,,0.00,Wunderground v.1.15,2013-03-01 03:16:00,
2013-02-28 22:21:00,32.5,24.5,29.85,NNE,21,3.0,4.0,72,0.00,,,0.00,Wunderground v.1.15,2013-03-01 03:21:00,
2013-02-28 22:26:00,32.5,24.8,29.85,NNE,22,0.0,4.0,73,0.00,,,0.00,Wunderground v.1.15,2013-03-01 03:26:00,
2013-02-28 22:31:00,32.4,24.4,29.84,NNE,17,0.0,1.0,72,0.00,,,0.00,Wunderground v.1.15,2013-03-01 03:31:00,
2013-02-28 22:36:00,32.2,24.5,29.84,NNE,17,0.0,2.0,73,0.00,,,0.00,Wunderground v.1.15,2013-03-01 03:36:00,
2013-02-28 22:41:00,32.1,24.4,29.84,NNE,13,0.0,1.0,73,0.00,,,0.00,Wunderground v.1.15,2013-03-01 03:41:00,
2013-02-28 22:46:00,32.1,24.7,29.85,NW,315,2.0,2.0,74,0.00,,,0.00,Wunderground v.1.15,2013-03-01 03:46:00,
2013-02-28 22:51:00,32.0,24.6,29.85,NNE,18,2.0,4.0,74,0.00,,,0.00,Wunderground v.1.15,2013-03-01 03:51:00,
2013-02-28 22:57:00,31.9,24.6,29.85,North,355,2.0,4.0,74,0.00,,,0.00,Wunderground v.1.15,2013-03-01 03:57:00,
2013-02-28 23:02:00,31.8,24.8,29.84,NW,326,1.0,2.0,75,0.00,,,0.00,Wunderground v.1.15,2013-03-01 04:02:00,
2013-02-28 23:07:00,31.7,24.7,29.84,NNE,30,4.0,7.0,75,0.00,,,0.00,Wunderground v.1.15,2013-03-01 04:07:00,
2013-02-28 23:12:00,31.7,24.7,29.84,North,5,1.0,5.0,75,0.00,,,0.00,Wunderground v.1.15,2013-03-01 04:12:00,
2013-02-28 23:17:00,31.7,25.0,29.84,NNE,13,3.0,7.0,76,0.00,,,0.00,Wunderground v.1.15,2013-03-01 04:17:00,
2013-02-28 23:22:00,31.7,25.0,29.84,WNW,292,1.0,3.0,76,0.00,,,0.00,Wunderground v.1.15,2013-03-01 04:22:00,
2013-02-28 23:27:00,31.7,25.0,29.84,NW,322,1.0,5.0,76,0.00,,,0.00,Wunderground v.1.15,2013-03-01 04:27:00,
2013-02-28 23:32:00,31.6,24.9,29.84,North,355,4.0,5.0,76,0.00,,,0.00,Wunderground v.1.15,2013-03-01 04:32:00,
2013-02-28 23:37:00,31.7,25.0,29.84,NNE,17,3.0,5.0,76,0.00,,,0.00,Wunderground v.1.15,2013-03-01 04:37:00,
2013-02-28 23:43:00,31.6,25.2,29.84,NNE,17,1.0,2.0,77,0.00,,,0.00,Wunderground v.1.15,2013-03-01 04:43:00,
2013-02-28 23:48:00,31.5,25.1,29.84,NNW,341,1.0,4.0,77,0.00,,,0.00,Wunderground v.1.15,2013-03-01 04:48:00,
2013-02-28 23:53:00,31.5,25.4,29.84,North,355,3.0,3.0,78,0.00,,,0.00,Wunderground v.1.15,2013-03-01 04:53:00,
2013-02-28 23:58:00,31.5,25.1,29.84,NW,316,3.0,5.0,77,0.00,,,0.00,Wunderground v.1.15,2013-03-01 04:58:00,